createdAt,value
2023-04-29T00:02:17.513Z,1.10
2023-04-29T00:04:48.176Z,1.77
2023-04-29T00:07:17.277Z,1.27
2023-04-29T00:09:45.915Z,1.60
2023-04-29T00:12:14.990Z,1.63
2023-04-29T00:14:43.887Z,1.60
2023-04-29T00:17:12.726Z,1.23
2023-04-29T00:19:41.477Z,1.50
2023-04-29T00:22:11.508Z,1.25
2023-04-29T00:24:40.204Z,1.30
2023-04-29T00:27:09.126Z,1.35
2023-04-29T00:29:37.843Z,1.50
2023-04-29T00:32:07.032Z,1.85
2023-04-29T00:34:35.689Z,1.30
2023-04-29T00:37:04.532Z,1.85
2023-04-29T00:39:34.828Z,1.38
2023-04-29T00:42:04.136Z,1.80
2023-04-29T00:44:32.890Z,1.70
2023-04-29T00:47:01.639Z,1.55
2023-04-29T00:49:30.579Z,1.60
2023-04-29T00:51:59.634Z,1.67
2023-04-29T00:54:28.515Z,1.35
2023-04-29T00:56:59.372Z,1.40
2023-04-29T00:59:32.190Z,1.50
2023-04-29T01:02:02.271Z,1.60
2023-04-29T01:04:31.064Z,1.50
2023-04-29T01:07:03.444Z,2.25
2023-04-29T01:09:41.169Z,1.60
2023-04-29T01:12:17.792Z,1.73
2023-04-29T01:14:50.245Z,1.70
2023-04-29T01:17:21.628Z,2.30
2023-04-29T01:19:52.724Z,1.48
2023-04-29T01:22:23.324Z,1.55
2023-04-29T01:24:53.355Z,1.80
2023-04-29T01:27:26.162Z,1.85
2023-04-29T01:30:01.295Z,1.50
2023-04-29T01:32:36.529Z,1.50
2023-04-29T01:35:08.804Z,1.70
2023-04-29T01:37:41.892Z,1.58
2023-04-29T01:40:14.637Z,1.85
2023-04-29T01:42:53.822Z,2.10
2023-04-29T01:45:23.430Z,1.55
2023-04-29T01:47:55.961Z,1.70
2023-04-29T01:50:24.937Z,1.40
2023-04-29T01:52:53.980Z,1.55
2023-04-29T01:55:24.286Z,1.63
2023-04-29T01:58:02.579Z,1.23
2023-04-29T02:00:58.050Z,1.40
2023-04-29T02:03:28.929Z,1.48
2023-04-29T02:05:59.332Z,1.67
2023-04-29T02:08:28.101Z,1.73
2023-04-29T02:11:00.494Z,1.55
2023-04-29T02:13:35.064Z,2.00
2023-04-29T02:16:10.058Z,1.70
2023-04-29T02:18:41.217Z,1.88
2023-04-29T02:21:09.992Z,1.85
2023-04-29T02:23:38.699Z,1.80
2023-04-29T02:26:09.828Z,1.70
2023-04-29T02:28:38.792Z,1.73
2023-04-29T02:31:07.600Z,1.20
2023-04-29T02:33:36.436Z,1.55
2023-04-29T02:36:05.281Z,1.50
2023-04-29T02:38:34.164Z,1.52
2023-04-29T02:41:02.861Z,2.40
2023-04-29T02:43:32.978Z,1.50
2023-04-29T02:46:02.896Z,1.90
2023-04-29T02:48:31.651Z,1.70
2023-04-29T02:51:00.308Z,2.00
2023-04-29T02:53:29.218Z,2.00
2023-04-29T02:55:58.268Z,1.70
2023-04-29T02:58:27.104Z,2.03
2023-04-29T03:00:57.421Z,1.85
2023-04-29T03:03:26.333Z,1.70
2023-04-29T03:05:55.138Z,1.40
2023-04-29T03:08:24.224Z,1.65
2023-04-29T03:10:52.847Z,1.42
2023-04-29T03:13:21.701Z,1.40
2023-04-29T03:15:50.479Z,1.33
2023-04-29T03:18:20.549Z,1.30
2023-04-29T03:20:50.000Z,1.50
2023-04-29T03:23:18.736Z,1.20
2023-04-29T03:25:47.448Z,1.50
2023-04-29T03:28:16.180Z,1.20
2023-04-29T03:30:44.932Z,1.30
2023-04-29T03:33:13.674Z,1.30
2023-04-29T03:35:43.990Z,1.15
2023-04-29T03:38:25.962Z,1.50
2023-04-29T03:40:56.268Z,1.58
2023-04-29T03:43:25.038Z,1.20
2023-04-29T03:45:54.037Z,1.20
2023-04-29T03:48:24.902Z,1.15
2023-04-29T03:50:56.043Z,1.10
2023-04-29T03:53:26.380Z,1.17
2023-04-29T03:55:55.688Z,1.27
2023-04-29T03:58:24.811Z,1.10
2023-04-29T04:00:54.127Z,0.98
2023-04-29T04:03:27.878Z,1.02
2023-04-29T04:05:59.864Z,0.98
2023-04-29T04:08:28.755Z,1.17
2023-04-29T04:11:04.688Z,0.80
2023-04-29T04:13:59.672Z,1.10
2023-04-29T04:16:28.311Z,0.95
2023-04-29T04:18:57.195Z,1.02
2023-04-29T04:21:27.553Z,1.10
2023-04-29T04:24:05.311Z,1.15
2023-04-29T04:26:34.282Z,1.10
2023-04-29T04:29:08.362Z,1.30
2023-04-29T04:31:47.397Z,1.23
2023-04-29T04:34:17.691Z,1.10
2023-04-29T04:36:50.435Z,1.20
2023-04-29T04:39:19.289Z,1.40
2023-04-29T04:41:48.324Z,1.42
2023-04-29T04:44:17.089Z,1.20
2023-04-29T04:47:04.206Z,1.20
2023-04-29T04:49:55.957Z,1.60
2023-04-29T04:52:26.233Z,1.20
2023-04-29T04:55:05.687Z,1.52
2023-04-29T04:57:37.946Z,1.40
2023-04-29T05:00:07.519Z,1.20
2023-04-29T05:02:36.910Z,1.40
2023-04-29T05:05:06.007Z,1.50
2023-04-29T05:07:39.788Z,1.55
2023-04-29T05:10:09.188Z,1.42
2023-04-29T05:12:45.857Z,1.30
2023-04-29T05:15:16.757Z,1.35
2023-04-29T05:17:46.469Z,1.58
2023-04-29T05:20:15.242Z,1.58
2023-04-29T05:22:45.347Z,1.60
2023-04-29T05:25:14.921Z,1.88
2023-04-29T05:27:43.584Z,1.85
2023-04-29T05:30:17.981Z,1.98
2023-04-29T05:32:48.852Z,1.95
2023-04-29T05:35:19.949Z,1.92
2023-04-29T05:37:50.100Z,2.20
2023-04-29T05:40:31.244Z,1.90
2023-04-29T05:43:21.734Z,2.00
2023-04-29T05:45:50.833Z,1.85
2023-04-29T05:48:19.583Z,2.10
2023-04-29T05:50:48.978Z,2.03
2023-04-29T05:53:19.278Z,2.25
2023-04-29T05:55:49.709Z,2.10
2023-04-29T05:58:19.939Z,1.48
2023-04-29T06:00:49.479Z,2.28
2023-04-29T06:03:23.280Z,2.05
2023-04-29T06:06:07.761Z,2.28
2023-04-29T06:08:44.745Z,2.10
2023-04-29T06:11:19.682Z,1.80
2023-04-29T06:13:48.381Z,1.80
2023-04-29T06:16:17.709Z,1.55
2023-04-29T06:18:46.655Z,1.90
2023-04-29T06:21:16.408Z,1.40
2023-04-29T06:23:46.723Z,1.70
2023-04-29T06:26:20.940Z,1.30
2023-04-29T06:28:49.797Z,1.58
2023-04-29T06:31:19.089Z,1.58
2023-04-29T06:33:48.911Z,1.48
2023-04-29T06:36:18.005Z,1.67
2023-04-29T06:39:09.328Z,1.80
2023-04-29T06:41:51.598Z,1.45
2023-04-29T06:44:39.340Z,1.48
2023-04-29T06:47:26.426Z,1.70
2023-04-29T06:50:24.179Z,1.27
2023-04-29T06:52:53.210Z,2.03
2023-04-29T06:55:23.373Z,1.23
2023-04-29T06:57:52.179Z,1.30
2023-04-29T07:00:22.788Z,1.30
2023-04-29T07:02:51.760Z,1.20
2023-04-29T07:05:20.426Z,1.10
2023-04-29T07:07:49.193Z,1.05
2023-04-29T07:10:17.922Z,1.05
2023-04-29T07:12:48.145Z,1.00
2023-04-29T07:15:17.480Z,1.00
2023-04-29T07:17:46.234Z,1.00
2023-04-29T07:20:15.718Z,1.27
2023-04-29T07:22:44.429Z,0.93
2023-04-29T07:25:14.402Z,1.15
2023-04-29T07:27:43.321Z,1.00
2023-04-29T07:30:13.607Z,1.00
2023-04-29T07:32:43.003Z,1.10
2023-04-29T07:35:11.867Z,1.00
2023-04-29T07:37:43.826Z,0.88
2023-04-29T07:40:13.154Z,0.93
2023-04-29T07:42:41.921Z,0.93
2023-04-29T07:45:11.663Z,0.93
2023-04-29T07:47:41.756Z,1.05
2023-04-29T07:50:10.690Z,1.10
2023-04-29T07:52:40.826Z,0.80
2023-04-29T07:55:10.914Z,0.80
2023-04-29T07:57:39.912Z,1.10
2023-04-29T08:00:09.922Z,0.80
2023-04-29T08:02:49.129Z,0.82
2023-04-29T08:05:18.555Z,0.70
2023-04-29T08:07:48.912Z,0.90
2023-04-29T08:10:17.976Z,0.77
2023-04-29T08:12:47.694Z,1.30
2023-04-29T08:15:16.722Z,0.80
2023-04-29T08:17:45.794Z,0.88
2023-04-29T08:20:16.346Z,0.90
2023-04-29T08:22:45.248Z,0.90
2023-04-29T08:25:13.998Z,0.85
2023-04-29T08:27:43.685Z,0.70
2023-04-29T08:30:12.648Z,0.93
2023-04-29T08:32:41.386Z,0.95
2023-04-29T08:35:10.587Z,0.90
2023-04-29T08:37:40.768Z,1.10
2023-04-29T08:40:10.268Z,1.10
2023-04-29T08:42:39.317Z,0.98
2023-04-29T08:45:08.471Z,1.33
2023-04-29T08:47:37.912Z,1.10
2023-04-29T08:50:07.298Z,1.00
2023-04-29T08:52:36.414Z,1.13
2023-04-29T08:55:07.361Z,1.05
2023-04-29T08:57:40.354Z,1.25
2023-04-29T09:00:10.257Z,0.98
2023-04-29T09:02:41.258Z,0.95
2023-04-29T09:05:11.423Z,1.00
2023-04-29T09:07:40.416Z,1.13
2023-04-29T09:10:11.828Z,1.45
2023-04-29T09:12:40.658Z,0.90
2023-04-29T09:15:09.987Z,1.00
2023-04-29T09:17:42.855Z,1.25
2023-04-29T09:20:29.918Z,1.30
2023-04-29T09:22:59.784Z,0.73
2023-04-29T09:25:29.984Z,1.40
2023-04-29T09:27:59.115Z,1.02
2023-04-29T09:30:28.036Z,0.88
2023-04-29T09:33:06.875Z,1.25
2023-04-29T09:35:35.602Z,1.13
2023-04-29T09:38:11.004Z,0.90
2023-04-29T09:40:57.374Z,0.98
2023-04-29T09:43:28.017Z,1.15
2023-04-29T09:45:56.997Z,1.30
2023-04-29T09:48:34.247Z,1.30
2023-04-29T09:51:04.248Z,1.55
2023-04-29T09:53:34.810Z,1.52
2023-04-29T09:56:05.379Z,1.77
2023-04-29T09:58:37.631Z,1.10
2023-04-29T10:01:07.445Z,1.58
2023-04-29T10:03:37.327Z,1.98
2023-04-29T10:06:07.784Z,1.30
2023-04-29T10:08:36.652Z,1.38
2023-04-29T10:11:06.946Z,1.40
2023-04-29T10:13:38.597Z,1.13
2023-04-29T10:16:13.399Z,1.73
2023-04-29T10:18:43.433Z,1.45
2023-04-29T10:21:13.552Z,1.23
2023-04-29T10:23:45.833Z,1.40
2023-04-29T10:26:17.218Z,1.50
2023-04-29T10:28:47.528Z,1.20
2023-04-29T10:31:16.878Z,0.85
2023-04-29T10:33:47.362Z,1.30
2023-04-29T10:36:16.526Z,1.10
2023-04-29T10:38:47.402Z,1.25
2023-04-29T10:41:21.428Z,1.17
2023-04-29T10:43:50.398Z,1.10
2023-04-29T10:46:19.540Z,1.20
2023-04-29T10:48:48.588Z,1.23
2023-04-29T10:51:31.450Z,1.40
2023-04-29T10:54:00.919Z,1.30
2023-04-29T10:56:47.870Z,1.83
2023-04-29T10:59:18.546Z,1.20
2023-04-29T11:01:48.620Z,1.13
2023-04-29T11:04:17.720Z,1.25
2023-04-29T11:06:47.821Z,1.60
2023-04-29T11:09:17.539Z,1.00
2023-04-29T11:11:47.000Z,1.50
2023-04-29T11:14:16.377Z,1.38
2023-04-29T11:16:53.836Z,1.02
2023-04-29T11:19:22.611Z,1.25
2023-04-29T11:22:05.310Z,1.15
2023-04-29T11:24:36.597Z,1.33
2023-04-29T11:27:05.554Z,1.10
2023-04-29T11:29:35.421Z,1.33
2023-04-29T11:32:05.605Z,1.17
2023-04-29T11:34:34.353Z,1.10
2023-04-29T11:37:03.099Z,0.90
2023-04-29T11:39:31.939Z,2.53
2023-04-29T11:42:05.206Z,1.15
2023-04-29T11:44:35.654Z,0.85
2023-04-29T11:47:06.168Z,1.20
2023-04-29T11:49:35.494Z,1.00
2023-04-29T11:52:04.276Z,2.00
2023-04-29T11:54:33.145Z,1.42
2023-04-29T11:57:04.208Z,1.50
2023-04-29T11:59:33.736Z,1.13
2023-04-29T12:02:02.482Z,1.15
2023-04-29T12:04:32.860Z,1.33
2023-04-29T12:07:02.160Z,1.75
2023-04-29T12:09:30.846Z,1.33
2023-04-29T12:11:59.603Z,1.40
2023-04-29T12:14:28.455Z,1.95
2023-04-29T12:16:57.199Z,1.40
2023-04-29T12:19:26.148Z,2.03
2023-04-29T12:21:56.253Z,1.88
2023-04-29T12:24:25.024Z,3.13
2023-04-29T12:26:54.895Z,2.08
2023-04-29T12:29:24.226Z,1.88
2023-04-29T12:31:53.287Z,2.25
2023-04-29T12:34:27.215Z,1.55
2023-04-29T12:36:58.860Z,1.55
2023-04-29T12:39:27.826Z,2.10
2023-04-29T12:41:58.120Z,2.20
2023-04-29T12:44:27.153Z,1.67
2023-04-29T12:46:58.405Z,1.98
2023-04-29T12:49:27.416Z,1.90
2023-04-29T12:51:56.181Z,1.98
2023-04-29T12:54:26.236Z,1.70
2023-04-29T12:56:54.902Z,2.53
2023-04-29T12:59:23.563Z,2.13
2023-04-29T13:01:52.327Z,1.77
2023-04-29T13:04:21.275Z,2.90
2023-04-29T13:06:52.124Z,1.77
2023-04-29T13:09:20.970Z,1.90
2023-04-29T13:11:51.875Z,3.05
2023-04-29T13:14:20.539Z,1.80
2023-04-29T13:16:49.409Z,3.15
2023-04-29T13:19:36.298Z,4.28
2023-04-29T13:22:07.035Z,1.88
2023-04-29T13:24:36.827Z,2.15
2023-04-29T13:27:07.038Z,2.00
2023-04-29T13:29:35.771Z,1.88
2023-04-29T13:32:04.772Z,1.90
2023-04-29T13:34:33.499Z,1.92
2023-04-29T13:37:02.234Z,1.77
2023-04-29T13:39:31.672Z,1.98
2023-04-29T13:42:00.734Z,1.90
2023-04-29T13:44:42.465Z,2.30
2023-04-29T13:47:25.191Z,1.95
2023-04-29T13:53:18.578Z,1.92
2023-04-29T13:56:11.410Z,2.05
2023-04-29T14:01:10.182Z,2.28
2023-04-29T14:03:28.524Z,1.90
2023-04-29T14:05:58.118Z,1.90
2023-04-29T14:08:26.811Z,1.98
2023-04-29T14:10:55.710Z,2.03
2023-04-29T14:13:24.491Z,1.80
2023-04-29T14:15:56.814Z,2.10
2023-04-29T14:18:25.591Z,1.75
2023-04-29T14:20:54.750Z,1.63
2023-04-29T14:23:23.445Z,1.67
2023-04-29T14:25:53.495Z,2.13
2023-04-29T14:28:23.391Z,1.58
2023-04-29T14:30:52.030Z,2.00
2023-04-29T14:33:22.027Z,1.95
2023-04-29T14:35:50.815Z,1.77
2023-04-29T14:38:19.582Z,1.75
2023-04-29T14:40:48.897Z,2.13
2023-04-29T14:43:17.593Z,2.00
2023-04-29T14:45:46.380Z,2.25
2023-04-29T14:48:15.326Z,1.80
2023-04-29T14:50:45.768Z,2.13
2023-04-29T14:53:14.521Z,2.17
2023-04-29T14:55:43.269Z,2.30
2023-04-29T14:58:12.007Z,2.50
2023-04-29T15:00:40.764Z,3.03
2023-04-29T15:03:10.689Z,2.28
2023-04-29T15:05:39.454Z,1.92
2023-04-29T15:08:09.836Z,2.70
2023-04-29T15:10:38.792Z,2.35
2023-04-29T15:13:07.673Z,2.55
2023-04-29T15:15:36.512Z,2.70
2023-04-29T15:18:06.285Z,2.72
2023-04-29T15:20:35.493Z,2.60
2023-04-29T15:23:05.491Z,2.55
2023-04-29T15:25:36.363Z,2.70
2023-04-29T15:28:05.916Z,2.50
2023-04-29T15:30:35.746Z,2.80
2023-04-29T15:33:05.341Z,2.30
2023-04-29T15:35:34.091Z,3.15
2023-04-29T15:38:02.732Z,2.45
2023-04-29T15:40:31.408Z,2.70
2023-04-29T15:43:01.560Z,2.67
2023-04-29T15:45:31.041Z,3.10
2023-04-29T15:47:59.821Z,3.00
2023-04-29T15:50:29.263Z,2.90
2023-04-29T15:52:58.952Z,2.88
2023-04-29T15:55:27.650Z,2.25
2023-04-29T15:57:56.330Z,2.40
2023-04-29T16:00:26.540Z,2.40
2023-04-29T16:02:55.648Z,4.68
2023-04-29T16:05:24.429Z,7.63
2023-04-29T16:07:53.068Z,9.32
2023-04-29T16:10:21.852Z,4.70
2023-04-29T16:12:50.918Z,4.45
2023-04-29T16:15:19.782Z,3.40
2023-04-29T16:17:50.648Z,2.83
2023-04-29T16:20:19.608Z,2.80
2023-04-29T16:22:48.447Z,2.60
2023-04-29T16:25:17.153Z,3.10
2023-04-29T16:27:46.208Z,9.65
2023-04-29T16:30:15.062Z,12.70
2023-04-29T16:32:43.861Z,4.30
2023-04-29T16:35:14.006Z,3.40
2023-04-29T16:37:42.829Z,3.92
2023-04-29T16:40:12.296Z,3.13
2023-04-29T16:42:40.982Z,2.90
2023-04-29T16:45:10.484Z,1.65
2023-04-29T16:47:40.878Z,1.05
2023-04-29T16:50:10.125Z,1.63
2023-04-29T16:52:40.201Z,1.23
2023-04-29T16:55:09.256Z,1.33
2023-04-29T16:57:38.006Z,1.63
2023-04-29T17:00:10.171Z,1.30
2023-04-29T17:02:40.280Z,1.35
2023-04-29T17:05:11.094Z,1.17
2023-04-29T17:07:41.310Z,2.10
2023-04-29T17:10:11.444Z,2.80
2023-04-29T17:12:40.371Z,1.75
2023-04-29T17:15:10.068Z,1.30
2023-04-29T17:17:38.920Z,1.60
2023-04-29T17:20:08.506Z,1.60
2023-04-29T17:22:37.182Z,1.63
2023-04-29T17:25:08.249Z,1.38
2023-04-29T17:27:36.933Z,1.73
2023-04-29T17:30:06.282Z,1.38
2023-04-29T17:32:39.530Z,1.33
2023-04-29T17:35:08.879Z,1.73
2023-04-29T17:37:37.569Z,1.77
2023-04-29T17:40:08.585Z,1.42
2023-04-29T17:42:37.341Z,1.25
2023-04-29T17:45:06.326Z,1.40
2023-04-29T17:47:35.499Z,1.45
2023-04-29T17:50:04.428Z,1.13
2023-04-29T17:52:33.149Z,1.30
2023-04-29T17:55:01.934Z,1.90
2023-04-29T17:57:32.093Z,1.20
2023-04-29T18:00:00.921Z,1.88
2023-04-29T18:02:29.761Z,2.50
2023-04-29T18:04:58.494Z,1.90
2023-04-29T18:07:27.185Z,1.48
2023-04-29T18:09:56.230Z,1.55
2023-04-29T18:12:25.325Z,1.23
2023-04-29T18:14:55.503Z,1.27
2023-04-29T18:17:24.261Z,1.33
2023-04-29T18:19:53.098Z,1.30
2023-04-29T18:22:21.841Z,1.20
2023-04-29T18:24:50.604Z,1.80
2023-04-29T18:27:19.265Z,1.20
2023-04-29T18:29:48.009Z,1.20
2023-04-29T18:32:18.077Z,1.20
2023-04-29T18:34:46.848Z,1.10
2023-04-29T18:37:15.654Z,1.30
2023-04-29T18:39:44.367Z,0.90
2023-04-29T18:42:13.418Z,1.00
2023-04-29T18:44:42.143Z,1.20
2023-04-29T18:47:10.849Z,1.10
2023-04-29T18:49:41.034Z,1.10
2023-04-29T18:52:09.759Z,0.93
2023-04-29T18:54:38.550Z,1.30
2023-04-29T18:57:07.558Z,3.40
2023-04-29T18:59:38.075Z,1.10
2023-04-29T19:02:07.100Z,1.20
2023-04-29T19:04:36.218Z,1.30
2023-04-29T19:07:06.609Z,1.10
2023-04-29T19:09:35.334Z,1.33
2023-04-29T19:12:04.932Z,1.10
2023-04-29T19:14:34.175Z,1.00
2023-04-29T19:17:03.097Z,1.20
2023-04-29T19:19:31.855Z,0.80
2023-04-29T19:22:01.195Z,0.77
2023-04-29T19:24:31.908Z,1.05
2023-04-29T19:27:00.978Z,0.80
2023-04-29T19:29:29.624Z,0.90
2023-04-29T19:31:58.421Z,2.90
2023-04-29T19:34:27.133Z,2.60
2023-04-29T19:36:55.838Z,1.85
2023-04-29T19:39:24.595Z,1.10
2023-04-29T19:41:55.602Z,1.13
2023-04-29T19:44:24.468Z,0.90
2023-04-29T19:46:53.545Z,0.80
2023-04-29T19:49:22.352Z,0.90
2023-04-29T19:51:51.683Z,0.75
2023-04-29T19:54:20.425Z,0.88
2023-04-29T19:56:49.089Z,0.85
2023-04-29T19:59:19.281Z,0.95
2023-04-29T20:01:48.755Z,1.20
2023-04-29T20:04:17.845Z,1.10
2023-04-29T20:06:46.643Z,0.90
2023-04-29T20:09:15.501Z,0.95
2023-04-29T20:11:44.522Z,0.80
2023-04-29T20:14:13.296Z,1.10
2023-04-29T20:16:43.497Z,0.70
2023-04-29T20:19:12.247Z,0.70
2023-04-29T20:21:41.233Z,0.85
2023-04-29T20:24:10.308Z,0.80
2023-04-29T20:26:38.991Z,0.70
2023-04-29T20:29:07.653Z,1.00
2023-04-29T20:31:36.361Z,0.80
2023-04-29T20:34:06.703Z,0.85
2023-04-29T20:36:35.667Z,0.98
2023-04-29T20:39:04.335Z,0.98
2023-04-29T20:41:33.456Z,0.90
2023-04-29T20:44:02.072Z,0.90
2023-04-29T20:46:30.886Z,0.80
2023-04-29T20:48:59.599Z,0.90
2023-04-29T20:51:29.804Z,0.95
2023-04-29T20:53:58.537Z,0.90
2023-04-29T20:56:27.231Z,0.88
2023-04-29T20:58:56.615Z,0.80
2023-04-29T21:01:25.321Z,0.90
2023-04-29T21:03:54.138Z,0.90
2023-04-29T21:06:22.826Z,0.80
2023-04-29T21:08:52.870Z,0.90
2023-04-29T21:11:21.517Z,0.80
2023-04-29T21:13:51.612Z,0.80
2023-04-29T21:16:20.991Z,0.80
2023-04-29T21:18:49.845Z,0.63
2023-04-29T21:21:18.525Z,0.77
2023-04-29T21:23:47.222Z,0.80
2023-04-29T21:26:17.505Z,0.80
2023-04-29T21:28:46.407Z,0.90
2023-04-29T21:31:16.564Z,0.70
2023-04-29T21:33:45.357Z,1.05
2023-04-29T21:36:14.115Z,1.13
2023-04-29T21:38:43.762Z,0.90
2023-04-29T21:41:19.367Z,0.90
2023-04-29T21:43:49.590Z,0.70
2023-04-29T21:46:18.841Z,0.90
2023-04-29T21:48:47.859Z,0.60
2023-04-29T21:51:19.016Z,0.70
2023-04-29T21:53:47.783Z,0.90
2023-04-29T21:56:16.484Z,0.90
2023-04-29T21:58:45.125Z,0.73
2023-04-29T22:01:27.602Z,0.75
2023-04-29T22:03:57.149Z,0.73
2023-04-29T22:06:26.210Z,0.90
2023-04-29T22:08:54.951Z,0.80
2023-04-29T22:11:24.678Z,0.80
2023-04-29T22:13:53.396Z,0.70
2023-04-29T22:16:24.458Z,0.90
2023-04-29T22:18:53.189Z,0.90
2023-04-29T22:21:21.844Z,0.88
2023-04-29T22:23:50.542Z,0.90
2023-04-29T22:26:19.634Z,0.70
2023-04-29T22:28:48.445Z,0.90
2023-04-29T22:31:17.129Z,0.80
2023-04-29T22:33:47.301Z,0.70
2023-04-29T22:36:16.219Z,0.90
2023-04-29T22:38:44.901Z,1.17
2023-04-29T22:41:13.598Z,0.80
2023-04-29T22:43:42.372Z,0.75
2023-04-29T22:46:11.141Z,0.80
2023-04-29T22:48:39.823Z,0.70
2023-04-29T22:51:09.975Z,0.82
2023-04-29T22:53:38.756Z,0.85
2023-04-29T22:56:07.510Z,0.80
2023-04-29T22:58:36.143Z,0.60
2023-04-29T23:01:04.951Z,0.60
2023-04-29T23:03:33.612Z,0.70
2023-04-29T23:06:02.580Z,0.70
2023-04-29T23:08:32.766Z,0.70
2023-04-29T23:11:01.539Z,0.70
2023-04-29T23:13:30.263Z,0.80
2023-04-29T23:15:58.996Z,0.80
2023-04-29T23:18:27.722Z,0.70
2023-04-29T23:20:57.530Z,0.60
2023-04-29T23:23:26.217Z,0.93
2023-04-29T23:25:56.264Z,0.80
2023-04-29T23:28:25.511Z,0.70
2023-04-29T23:30:54.528Z,0.60
2023-04-29T23:33:23.379Z,0.68
2023-04-29T23:35:52.334Z,0.60
2023-04-29T23:38:21.355Z,0.60
2023-04-29T23:40:50.024Z,0.77
2023-04-29T23:43:21.541Z,0.50
2023-04-29T23:45:50.426Z,0.60
2023-04-29T23:48:19.239Z,0.70
2023-04-29T23:50:48.217Z,0.60
2023-04-29T23:53:17.094Z,0.55
2023-04-29T23:55:46.050Z,0.70
2023-04-29T23:58:14.715Z,0.60
